Time,TemperatureF,DewpointF,PressureIn,WindDirection,WindDirectionDegrees,WindSpeedMPH,WindSpeedGustMPH,Humidity,HourlyPrecipIn,Conditions,Clouds,dailyrainin,SoftwareType,DateUTC
2013-09-21 00:11:00,46.0,39.0,-100.00,North,-999,0.0,0.0,76,-99.99,,,-99.99,,2013-09-21 07:11:00,
2013-09-21 00:42:00,48.0,35.0,-100.00,North,-999,0.0,0.0,61,-99.99,,,-99.99,,2013-09-21 07:42:00,
2013-09-21 00:52:00,48.0,35.0,-100.00,North,-999,0.0,0.0,61,-99.99,,,-99.99,,2013-09-21 07:52:00,
2013-09-21 01:12:00,46.0,37.0,-100.00,North,-999,0.0,0.0,72,-99.99,,,-99.99,,2013-09-21 08:12:00,
2013-09-21 01:21:00,46.0,39.0,-100.00,North,-999,0.0,0.0,76,-99.99,,,-99.99,,2013-09-21 08:21:00,
2013-09-21 01:42:00,45.0,38.0,-100.00,North,-999,0.0,0.0,76,-99.99,,,-99.99,,2013-09-21 08:42:00,
2013-09-21 01:52:00,46.0,36.0,-100.00,North,-999,0.0,0.0,69,-99.99,,,-99.99,,2013-09-21 08:52:00,
2013-09-21 02:11:00,46.0,36.0,-100.00,North,-999,0.0,0.0,69,-99.99,,,-99.99,,2013-09-21 09:11:00,
2013-09-21 02:22:00,46.0,36.0,-100.00,North,-999,0.0,0.0,69,-99.99,,,-99.99,,2013-09-21 09:22:00,
2013-09-21 02:43:00,45.0,36.0,-100.00,North,-999,0.0,0.0,69,-99.99,,,-99.99,,2013-09-21 09:43:00,
2013-09-21 02:54:00,45.0,36.0,-100.00,North,-999,0.0,0.0,69,-99.99,,,-99.99,,2013-09-21 09:54:00,
2013-09-21 03:12:00,45.0,36.0,-100.00,North,-999,0.0,0.0,71,-99.99,,,-99.99,,2013-09-21 10:12:00,
2013-09-21 03:23:00,45.0,36.0,-100.00,North,-999,0.0,0.0,71,-99.99,,,-99.99,,2013-09-21 10:23:00,
2013-09-21 03:42:00,45.0,36.0,-100.00,North,-999,0.0,0.0,71,-99.99,,,-99.99,,2013-09-21 10:42:00,
2013-09-21 03:52:00,45.0,36.0,-100.00,North,-999,0.0,0.0,71,-99.99,,,-99.99,,2013-09-21 10:52:00,
2013-09-21 04:11:00,44.0,36.0,-100.00,North,-999,0.0,0.0,74,-99.99,,,-99.99,,2013-09-21 11:11:00,
2013-09-21 04:23:00,44.0,36.0,-100.00,North,-999,0.0,0.0,74,-99.99,,,-99.99,,2013-09-21 11:23:00,
2013-09-21 04:42:00,42.0,36.0,-100.00,North,-999,0.0,0.0,78,-99.99,,,-99.99,,2013-09-21 11:42:00,
2013-09-21 04:52:00,42.0,36.0,-100.00,North,-999,0.0,0.0,78,-99.99,,,-99.99,,2013-09-21 11:52:00,
2013-09-21 05:12:00,42.0,36.0,-100.00,North,-999,0.0,0.0,80,-99.99,,,-99.99,,2013-09-21 12:12:00,
2013-09-21 05:21:00,41.0,36.0,-100.00,North,-999,0.0,0.0,82,-99.99,,,-99.99,,2013-09-21 12:21:00,
2013-09-21 05:42:00,39.0,36.0,-100.00,North,-999,0.0,0.0,87,-99.99,,,-99.99,,2013-09-21 12:42:00,
2013-09-21 05:52:00,39.0,36.0,-100.00,North,-999,0.0,0.0,87,-99.99,,,-99.99,,2013-09-21 12:52:00,
2013-09-21 06:11:00,39.0,36.0,-100.00,North,-999,0.0,0.0,91,-99.99,,,-99.99,,2013-09-21 13:11:00,
2013-09-21 06:21:00,39.0,36.0,-100.00,North,-999,0.0,0.0,91,-99.99,,,-99.99,,2013-09-21 13:21:00,
2013-09-21 06:42:00,38.0,36.0,-100.00,North,-999,0.0,0.0,92,-99.99,,,-99.99,,2013-09-21 13:42:00,
2013-09-21 06:52:00,38.0,36.0,-100.00,North,-999,0.0,0.0,92,-99.99,,,-99.99,,2013-09-21 13:52:00,
2013-09-21 07:11:00,38.0,36.0,-100.00,North,-999,0.0,0.0,94,-99.99,,,-99.99,,2013-09-21 14:11:00,
2013-09-21 07:22:00,38.0,36.0,-100.00,North,-999,0.0,0.0,94,-99.99,,,-99.99,,2013-09-21 14:22:00,
2013-09-21 07:42:00,38.0,36.0,-100.00,North,-999,0.0,0.0,94,-99.99,,,-99.99,,2013-09-21 14:42:00,
2013-09-21 07:52:00,38.0,36.0,-100.00,North,-999,0.0,0.0,94,-99.99,,,-99.99,,2013-09-21 14:52:00,
2013-09-21 08:12:00,40.0,38.0,-100.00,North,-999,0.0,0.0,94,-99.99,,,-99.99,,2013-09-21 15:12:00,
2013-09-21 08:22:00,40.0,38.0,-100.00,North,-999,0.0,0.0,94,-99.99,,,-99.99,,2013-09-21 15:22:00,
2013-09-21 08:44:00,42.0,39.0,-100.00,North,-999,0.0,0.0,91,-99.99,,,-99.99,,2013-09-21 15:44:00,
2013-09-21 08:55:00,43.0,39.0,-100.00,North,-999,0.0,0.0,87,-99.99,,,-99.99,,2013-09-21 15:55:00,
2013-09-21 09:14:00,43.0,39.0,-100.00,North,-999,0.0,0.0,87,-99.99,,,-99.99,,2013-09-21 16:14:00,
2013-09-21 09:24:00,44.0,40.0,-100.00,North,-999,0.0,0.0,84,-99.99,,,-99.99,,2013-09-21 16:24:00,
2013-09-21 09:43:00,47.0,39.0,-100.00,North,-999,0.0,0.0,75,-99.99,,,-99.99,,2013-09-21 16:43:00,
2013-09-21 09:54:00,47.0,39.0,-100.00,North,-999,0.0,0.0,75,-99.99,,,-99.99,,2013-09-21 16:54:00,
2013-09-21 10:23:00,52.0,39.0,-100.00,North,-999,0.0,0.0,61,-99.99,,,-99.99,,2013-09-21 17:23:00,
2013-09-21 10:43:00,53.0,37.0,-100.00,North,-999,0.0,0.0,55,-99.99,,,-99.99,,2013-09-21 17:43:00,
2013-09-21 10:52:00,53.0,37.0,-100.00,North,-999,0.0,0.0,55,-99.99,,,-99.99,,2013-09-21 17:52:00,
2013-09-21 11:12:00,53.0,37.0,-100.00,North,-999,0.0,0.0,54,-99.99,,,-99.99,,2013-09-21 18:12:00,
2013-09-21 11:22:00,53.0,37.0,-100.00,North,-999,0.0,0.0,54,-99.99,,,-99.99,,2013-09-21 18:22:00,
2013-09-21 11:42:00,55.0,38.0,-100.00,North,-999,0.0,0.0,52,-99.99,,,-99.99,,2013-09-21 18:42:00,
2013-09-21 11:52:00,56.0,37.0,-100.00,North,-999,0.0,0.0,50,-99.99,,,-99.99,,2013-09-21 18:52:00,
2013-09-21 12:11:00,57.0,37.0,-100.00,North,-999,0.0,0.0,48,-99.99,,,-99.99,,2013-09-21 19:11:00,
2013-09-21 12:21:00,57.0,37.0,-100.00,North,-999,0.0,0.0,48,-99.99,,,-99.99,,2013-09-21 19:21:00,
2013-09-21 12:42:00,57.0,35.0,-100.00,North,-999,0.0,0.0,44,-99.99,,,-99.99,,2013-09-21 19:42:00,
2013-09-21 12:52:00,58.0,35.0,-100.00,North,-999,0.0,0.0,42,-99.99,,,-99.99,,2013-09-21 19:52:00,
2013-09-21 13:12:00,58.0,36.0,-100.00,North,-999,0.0,0.0,44,-99.99,,,-99.99,,2013-09-21 20:12:00,
2013-09-21 13:21:00,58.0,36.0,-100.00,North,-999,0.0,0.0,44,-99.99,,,-99.99,,2013-09-21 20:21:00,
2013-09-21 13:42:00,58.0,35.0,-100.00,North,-999,0.0,0.0,41,-99.99,,,-99.99,,2013-09-21 20:42:00,
2013-09-21 13:52:00,58.0,35.0,-100.00,North,-999,0.0,0.0,41,-99.99,,,-99.99,,2013-09-21 20:52:00,
2013-09-21 14:11:00,58.0,35.0,-100.00,North,-999,0.0,0.0,42,-99.99,,,-99.99,,2013-09-21 21:11:00,
2013-09-21 14:21:00,58.0,35.0,-100.00,North,-999,0.0,0.0,42,-99.99,,,-99.99,,2013-09-21 21:21:00,
2013-09-21 14:44:00,51.0,38.0,-100.00,North,-999,0.0,0.0,61,-99.99,,,-99.99,,2013-09-21 21:44:00,
2013-09-21 14:54:00,51.0,38.0,-100.00,North,-999,0.0,0.0,61,-99.99,,,-99.99,,2013-09-21 21:54:00,
2013-09-21 15:13:00,53.0,41.0,-100.00,North,-999,0.0,0.0,65,-99.99,,,-99.99,,2013-09-21 22:13:00,
2013-09-21 15:23:00,53.0,41.0,-100.00,North,-999,0.0,0.0,65,-99.99,,,-99.99,,2013-09-21 22:23:00,
2013-09-21 15:43:00,54.0,41.0,-100.00,North,-999,0.0,0.0,61,-99.99,,,-99.99,,2013-09-21 22:43:00,
2013-09-21 15:53:00,54.0,40.0,-100.00,North,-999,0.0,0.0,60,-99.99,,,-99.99,,2013-09-21 22:53:00,
2013-09-21 16:12:00,54.0,40.0,-100.00,North,-999,0.0,0.0,60,-99.99,,,-99.99,,2013-09-21 23:12:00,
2013-09-21 16:22:00,54.0,40.0,-100.00,North,-999,0.0,0.0,60,-99.99,,,-99.99,,2013-09-21 23:22:00,
2013-09-21 16:42:00,55.0,39.0,-100.00,North,-999,0.0,0.0,53,-99.99,,,-99.99,,2013-09-21 23:42:00,
2013-09-21 16:52:00,55.0,39.0,-100.00,North,-999,0.0,0.0,53,-99.99,,,-99.99,,2013-09-21 23:52:00,
2013-09-21 17:12:00,56.0,37.0,-100.00,North,-999,0.0,0.0,49,-99.99,,,-99.99,,2013-09-22 00:12:00,
2013-09-21 17:22:00,56.0,37.0,-100.00,North,-999,0.0,0.0,48,-99.99,,,-99.99,,2013-09-22 00:22:00,
2013-09-21 17:43:00,54.0,36.0,-100.00,North,-999,0.0,0.0,50,-99.99,,,-99.99,,2013-09-22 00:43:00,
2013-09-21 17:52:00,54.0,36.0,-100.00,North,-999,0.0,0.0,50,-99.99,,,-99.99,,2013-09-22 00:52:00,
2013-09-21 18:11:00,53.0,36.0,-100.00,North,-999,0.0,0.0,52,-99.99,,,-99.99,,2013-09-22 01:11:00,
2013-09-21 18:21:00,52.0,37.0,-100.00,North,-999,0.0,0.0,55,-99.99,,,-99.99,,2013-09-22 01:21:00,
2013-09-21 18:42:00,50.0,37.0,-100.00,North,-999,0.0,0.0,60,-99.99,,,-99.99,,2013-09-22 01:42:00,
2013-09-21 18:52:00,50.0,37.0,-100.00,North,-999,0.0,0.0,60,-99.99,,,-99.99,,2013-09-22 01:52:00,
2013-09-21 19:11:00,50.0,37.0,-100.00,North,-999,0.0,0.0,61,-99.99,,,-99.99,,2013-09-22 02:11:00,
2013-09-21 19:22:00,50.0,37.0,-100.00,North,-999,0.0,0.0,61,-99.99,,,-99.99,,2013-09-22 02:22:00,
2013-09-21 19:42:00,50.0,37.0,-100.00,North,-999,0.0,0.0,62,-99.99,,,-99.99,,2013-09-22 02:42:00,
2013-09-21 19:52:00,49.0,37.0,-100.00,North,-999,0.0,0.0,64,-99.99,,,-99.99,,2013-09-22 02:52:00,
2013-09-21 20:12:00,47.0,37.0,-100.00,North,-999,0.0,0.0,68,-99.99,,,-99.99,,2013-09-22 03:12:00,
2013-09-21 20:22:00,46.0,37.0,-100.00,North,-999,0.0,0.0,70,-99.99,,,-99.99,,2013-09-22 03:22:00,
2013-09-21 20:44:00,46.0,37.0,-100.00,North,-999,0.0,0.0,71,-99.99,,,-99.99,,2013-09-22 03:44:00,
2013-09-21 20:54:00,46.0,37.0,-100.00,North,-999,0.0,0.0,71,-99.99,,,-99.99,,2013-09-22 03:54:00,
2013-09-21 21:02:00,-999.0,-99.9,-100.00,North,-999,0.0,0.0,-999,-99.99,,,-99.99,,2013-09-22 04:02:00,
2013-09-21 21:14:00,44.0,38.0,-100.00,North,-999,0.0,0.0,77,-99.99,,,-99.99,,2013-09-22 04:14:00,
2013-09-21 21:23:00,44.0,38.0,-100.00,North,-999,0.0,0.0,77,-99.99,,,-99.99,,2013-09-22 04:23:00,
2013-09-21 21:43:00,44.0,38.0,-100.00,North,-999,0.0,0.0,81,-99.99,,,-99.99,,2013-09-22 04:43:00,
2013-09-21 21:54:00,44.0,38.0,-100.00,North,-999,0.0,0.0,81,-99.99,,,-99.99,,2013-09-22 04:54:00,
2013-09-21 22:13:00,43.0,38.0,-100.00,North,-999,0.0,0.0,83,-99.99,,,-99.99,,2013-09-22 05:13:00,
2013-09-21 22:23:00,43.0,38.0,-100.00,North,-999,0.0,0.0,83,-99.99,,,-99.99,,2013-09-22 05:23:00,
2013-09-21 22:43:00,43.0,38.0,-100.00,North,-999,0.0,0.0,85,-99.99,,,-99.99,,2013-09-22 05:43:00,
2013-09-21 22:53:00,43.0,38.0,-100.00,North,-999,0.0,0.0,85,-99.99,,,-99.99,,2013-09-22 05:53:00,
2013-09-21 23:12:00,42.0,39.0,-100.00,North,-999,0.0,0.0,86,-99.99,,,-99.99,,2013-09-22 06:12:00,
2013-09-21 23:22:00,42.0,39.0,-100.00,North,-999,0.0,0.0,87,-99.99,,,-99.99,,2013-09-22 06:22:00,
2013-09-21 23:42:00,42.0,39.0,-100.00,North,-999,0.0,0.0,89,-99.99,,,-99.99,,2013-09-22 06:42:00,
2013-09-21 23:52:00,42.0,39.0,-100.00,North,-999,0.0,0.0,89,-99.99,,,-99.99,,2013-09-22 06:52:00,